CheckWX is a tool to help pilots better visualize weather data.  It is not intended as a substitute for an official pre-flight weather briefing.

13:24:45 UTC

KRND METAR
Randolph AFB Airport
Universal City, Texas, USA
Current

24 mins ago

KRND 201301Z 15003KT 10SM SCT015 SCT021 26/25 A3004 RMK AO2A SLP163
Observed
Aug-20 @ 13:01 UTC
Wind
  • 150° at 3 KTS
Visibility
10 SM
Flight Rules
VFR
Cloud Levels
  • Scattered at 1,500' AGL
  • Scattered at 2,100' AGL
Temperature
26°C / 79°F
Dewpoint
25°C / 77°F
Humidity
94%
Altimeter
30.04" Hg
Pressure
1017.32 hPa
Previous

34 mins ago

KRND 201251Z 00000KT 10SM BKN015 26/25 A3004 RMK AO2A SLP163
Observed
Aug-20 @ 12:51 UTC
Visibility
10 SM
Flight Rules
MVFR
Cloud Levels
  • Broken at 1,500' AGL
Temperature
26°C / 79°F
Dewpoint
25°C / 77°F
Humidity
94%
Altimeter
30.04" Hg
Pressure
1017.32 hPa
Previous

1 hour ago

KRND 201156Z AUTO 17004KT 10SM SCT015 SCT023 26/24 A3003 RMK AO2 SLP159 T02600244 10271 20260 53008
Observed
Aug-20 @ 11:56 UTC
Wind
  • 170° at 4 KTS
Visibility
10 SM
Flight Rules
VFR
Cloud Levels
  • Scattered at 1,500' AGL
  • Scattered at 2,300' AGL
Temperature
26°C / 79°F
Dewpoint
24°C / 75°F
Humidity
89%
Altimeter
30.03" Hg
Pressure
1016.92 hPa